Farwood, Mississippi
Current Conditions -  °F | °C
As of 7:53 AM on Friday 28 Nov 2014 (Local Time) from KMCB Reporting Station
Clear Clear  
Wind Chill: 33°   Ceiling: Unl
Heat Index: 37°   Visibility: 10mi
Dew Point: 31°   Wind: 5mph
Humidity: 79%   Direction: 110°ESE
Pressure: 30.43"   Gusts: NA
Location:  31.1804°N, 90.4473°W
Report Text: KMCB 281353Z AUTO 11004KT 10SM CLR 03/M01 A3043 RMK AO2 SLP307 T00281006
Loading
Personal Weather Stations






























Interactive Weather Map New forecast layout! Learn more

10-Day Weather Forecast

Advertisements
Track Severe Weather on mobile